Time,TemperatureF,DewpointF,PressureIn,WindDirection,WindDirectionDegrees,WindSpeedMPH,WindSpeedGustMPH,Humidity,HourlyPrecipIn,Conditions,Clouds,dailyrainin,SoftwareType,DateUTC
2013-06-15 00:01:00,74.6,68.0,29.98,East,99,0.0,1.0,80,0.00,,,0.00,weatherlink.com 1.10,2013-06-15 04:01:00,
2013-06-15 00:16:00,73.6,68.0,29.99,ESE,105,0.0,0.0,83,0.00,,,0.00,weatherlink.com 1.10,2013-06-15 04:16:00,
2013-06-15 00:31:00,73.2,68.0,29.99,ESE,105,0.0,0.0,84,0.00,,,0.00,weatherlink.com 1.10,2013-06-15 04:31:00,
2013-06-15 00:46:00,74.2,70.0,29.99,East,90,1.0,1.0,85,0.00,,,0.00,weatherlink.com 1.10,2013-06-15 04:46:00,
2013-06-15 01:01:00,74.0,69.0,29.99,East,101,0.0,0.0,84,0.00,,,0.00,weatherlink.com 1.10,2013-06-15 05:01:00,
2013-06-15 01:16:00,73.1,69.0,29.99,East,98,0.0,1.0,87,0.00,,,0.00,weatherlink.com 1.10,2013-06-15 05:16:00,
2013-06-15 01:31:00,72.3,69.0,29.99,ESE,106,0.0,1.0,88,0.00,,,0.00,weatherlink.com 1.10,2013-06-15 05:31:00,
2013-06-15 01:46:00,72.7,69.0,29.99,ESE,105,0.0,0.0,88,0.00,,,0.00,weatherlink.com 1.10,2013-06-15 05:46:00,
2013-06-15 02:01:00,72.4,69.0,30.00,ESE,106,0.0,0.0,89,0.00,,,0.00,weatherlink.com 1.10,2013-06-15 06:01:00,
2013-06-15 02:16:00,72.0,69.0,30.00,ESE,122,0.0,0.0,89,0.00,,,0.00,weatherlink.com 1.10,2013-06-15 06:16:00,
2013-06-15 02:32:00,72.0,69.0,30.00,ESE,121,0.0,0.0,89,0.00,,,0.00,weatherlink.com 1.10,2013-06-15 06:32:00,
2013-06-15 02:47:00,72.0,69.0,30.00,ESE,122,0.0,0.0,89,0.00,,,0.00,weatherlink.com 1.10,2013-06-15 06:47:00,
2013-06-15 03:02:00,72.9,70.0,30.00,ESE,121,0.0,0.0,90,0.00,,,0.00,weatherlink.com 1.10,2013-06-15 07:02:00,
2013-06-15 07:33:00,76.4,71.0,30.05,East,89,1.0,2.0,82,0.00,,,0.00,weatherlink.com 1.10,2013-06-15 11:33:00,
2013-06-15 07:48:00,77.3,71.0,30.05,ESE,114,1.0,3.0,81,0.00,,,0.00,weatherlink.com 1.10,2013-06-15 11:48:00,
2013-06-15 08:03:00,78.2,70.0,30.06,SE,131,2.0,5.0,76,0.00,,,0.00,weatherlink.com 1.10,2013-06-15 12:03:00,
2013-06-15 08:18:00,78.7,70.0,30.07,ESE,102,1.0,9.0,75,0.00,,,0.00,weatherlink.com 1.10,2013-06-15 12:18:00,
2013-06-15 08:33:00,79.3,70.0,30.08,East,91,4.0,10.0,73,0.00,,,0.00,weatherlink.com 1.10,2013-06-15 12:33:00,
2013-06-15 08:48:00,79.6,68.0,30.09,SE,127,4.0,11.0,67,0.00,,,0.00,weatherlink.com 1.10,2013-06-15 12:48:00,
2013-06-15 09:03:00,80.4,68.0,30.09,South,172,4.0,10.0,65,0.00,,,0.00,weatherlink.com 1.10,2013-06-15 13:03:00,
2013-06-15 09:18:00,80.4,67.0,30.09,SE,128,12.0,14.0,64,0.00,,,0.00,weatherlink.com 1.10,2013-06-15 13:18:00,
2013-06-15 09:33:00,80.3,66.0,30.10,SE,128,6.0,12.0,62,0.00,,,0.00,weatherlink.com 1.10,2013-06-15 13:33:00,
2013-06-15 09:48:00,80.6,67.0,30.10,SE,135,7.0,11.0,63,0.00,,,0.00,weatherlink.com 1.10,2013-06-15 13:48:00,
2013-06-15 10:03:00,82.0,67.0,30.10,SSE,148,4.0,12.0,60,0.00,,,0.00,weatherlink.com 1.10,2013-06-15 14:03:00,
2013-06-15 10:18:00,81.4,66.0,30.10,ESE,107,9.0,11.0,60,0.00,,,0.00,weatherlink.com 1.10,2013-06-15 14:18:00,
2013-06-15 10:33:00,81.2,67.0,30.10,ESE,120,12.0,14.0,63,0.00,,,0.00,weatherlink.com 1.10,2013-06-15 14:33:00,
2013-06-15 10:48:00,81.9,68.0,30.10,SSE,155,4.0,12.0,62,0.00,,,0.00,weatherlink.com 1.10,2013-06-15 14:48:00,
2013-06-15 11:03:00,81.7,66.0,30.11,ESE,103,6.0,13.0,60,0.00,,,0.00,weatherlink.com 1.10,2013-06-15 15:03:00,
2013-06-15 11:19:00,81.8,67.0,30.11,SE,128,8.0,14.0,61,0.00,,,0.00,weatherlink.com 1.10,2013-06-15 15:19:00,
2013-06-15 13:49:00,82.4,66.0,30.11,ESE,105,9.0,16.0,57,0.00,,,0.00,weatherlink.com 1.10,2013-06-15 17:49:00,
2013-06-15 14:04:00,82.0,66.0,30.10,South,174,6.0,15.0,58,0.00,,,0.00,weatherlink.com 1.10,2013-06-15 18:04:00,
2013-06-15 14:19:00,82.5,63.0,30.10,SE,141,8.0,13.0,51,0.00,,,0.00,weatherlink.com 1.10,2013-06-15 18:19:00,
2013-06-15 14:34:00,83.2,65.0,30.09,SE,127,10.0,14.0,54,0.00,,,0.00,weatherlink.com 1.10,2013-06-15 18:34:00,
2013-06-15 14:49:00,83.1,66.0,30.09,SSE,165,5.0,18.0,57,0.00,,,0.00,weatherlink.com 1.10,2013-06-15 18:49:00,
2013-06-15 15:04:00,82.8,65.0,30.09,SE,141,13.0,15.0,55,0.00,,,0.00,weatherlink.com 1.10,2013-06-15 19:04:00,
2013-06-15 15:19:00,82.8,65.0,30.09,SE,139,6.0,14.0,56,0.00,,,0.00,weatherlink.com 1.10,2013-06-15 19:19:00,
2013-06-15 15:34:00,82.6,64.0,30.09,SE,145,6.0,16.0,54,0.00,,,0.00,weatherlink.com 1.10,2013-06-15 19:34:00,
2013-06-15 16:04:00,82.7,64.0,30.09,East,96,10.0,16.0,53,0.00,,,0.00,weatherlink.com 1.10,2013-06-15 20:04:00,
2013-06-15 16:19:00,83.2,63.0,30.09,SSE,151,4.0,11.0,51,0.00,,,0.00,weatherlink.com 1.10,2013-06-15 20:19:00,
2013-06-15 17:04:00,82.5,63.0,30.09,SSE,151,7.0,13.0,52,0.00,,,0.00,weatherlink.com 1.10,2013-06-15 21:04:00,
2013-06-15 17:19:00,82.4,62.0,30.09,SE,133,4.0,12.0,51,0.00,,,0.00,weatherlink.com 1.10,2013-06-15 21:19:00,
2013-06-15 21:20:00,74.2,63.0,30.09,SE,134,1.0,2.0,68,0.00,,,0.00,weatherlink.com 1.10,2013-06-16 01:20:00,
2013-06-15 21:35:00,74.0,64.0,30.10,SE,142,0.0,2.0,70,0.00,,,0.00,weatherlink.com 1.10,2013-06-16 01:35:00,
2013-06-15 21:50:00,73.9,64.0,30.10,SE,138,1.0,3.0,70,0.00,,,0.00,weatherlink.com 1.10,2013-06-16 01:50:00,
2013-06-15 22:05:00,74.6,64.0,30.10,South,169,3.0,5.0,70,0.00,,,0.00,weatherlink.com 1.10,2013-06-16 02:05:00,
2013-06-15 22:20:00,75.0,65.0,30.10,ESE,120,4.0,6.0,70,0.00,,,0.00,weatherlink.com 1.10,2013-06-16 02:20:00,
2013-06-15 22:35:00,75.4,65.0,30.11,SE,124,3.0,5.0,70,0.00,,,0.00,weatherlink.com 1.10,2013-06-16 02:35:00,
2013-06-15 22:50:00,75.3,65.0,30.11,SE,137,2.0,6.0,71,0.00,,,0.00,weatherlink.com 1.10,2013-06-16 02:50:00,
2013-06-15 23:05:00,75.3,66.0,30.11,SSE,158,1.0,5.0,72,0.00,,,0.00,weatherlink.com 1.10,2013-06-16 03:05:00,
2013-06-15 23:20:00,75.3,66.0,30.11,SE,130,1.0,4.0,73,0.00,,,0.00,weatherlink.com 1.10,2013-06-16 03:20:00,
2013-06-15 23:35:00,75.4,66.0,30.11,SSE,162,2.0,7.0,73,0.00,,,0.00,weatherlink.com 1.10,2013-06-16 03:35:00,
2013-06-15 23:50:00,75.3,67.0,30.11,SE,130,2.0,5.0,74,0.00,,,0.00,weatherlink.com 1.10,2013-06-16 03:50:00,